Huvudsida
METAR-TAF:

METAR-TAF

Flygplatser :

Meiringen, Schweiz

latitud: 46-44-25N, longitud: 8-06-36E, höjd: 577 m

Aktuellt väderrapport

Denna rapport gjordes för 39 minuter sedan, klockan 17:50 UTC
Stilla vind
Temperatur -1°C
Fuktighet 93%
Tryck 1023 hPa
Sikt 10 km eller mer
Få moln på en höjd av 23000 ft

METAR: LSMM 241750Z AUTO 00000KT 9999NDV FEW230 M01/M02 Q1023 RMK

Tid: 19:29 (18:29 UTC)


TAF: saknas

Aktuella väderrapporter och prognoser från 4000 flygplatser (METAR- och TAF-rapporter).

De tillgängliga stationerna syns som gula och röda prickar på kartan.

För musen över prickarna för att se namnen på stationerna.

Klicka sedan för att få väderrapporter och prognoser.

För att ändra kartan: Klicka på de gröna knapparna med ett svart kors på för att zooma in; den gröna knappen med ett streck på för att zooma ut; eller på de gröna pilarna för angränsande kartor.


METAR-TAF: